sensor_id;sensor_type;location;lat;lon;timestamp;P1;durP1;ratioP1;P2;durP2;ratioP2
21254;SDS011;10785;50.674;17.954;2022-08-21T00:02:03;20.35;;;12.95;;
21254;SDS011;10785;50.674;17.954;2022-08-21T00:04:34;22.17;;;13.40;;
21254;SDS011;10785;50.674;17.954;2022-08-21T00:07:14;23.50;;;13.02;;
21254;SDS011;10785;50.674;17.954;2022-08-21T00:09:43;22.95;;;13.68;;
21254;SDS011;10785;50.674;17.954;2022-08-21T00:12:11;19.25;;;12.85;;
21254;SDS011;10785;50.674;17.954;2022-08-21T00:14:40;22.17;;;13.38;;
21254;SDS011;10785;50.674;17.954;2022-08-21T00:17:12;23.40;;;13.98;;
21254;SDS011;10785;50.674;17.954;2022-08-21T00:19:43;24.60;;;13.82;;
21254;SDS011;10785;50.674;17.954;2022-08-21T00:22:12;22.80;;;13.52;;
21254;SDS011;10785;50.674;17.954;2022-08-21T00:24:41;26.67;;;14.85;;
21254;SDS011;10785;50.674;17.954;2022-08-21T00:27:09;26.85;;;15.55;;
21254;SDS011;10785;50.674;17.954;2022-08-21T00:29:38;26.13;;;15.32;;
21254;SDS011;10785;50.674;17.954;2022-08-21T00:32:07;27.52;;;15.60;;
21254;SDS011;10785;50.674;17.954;2022-08-21T00:34:35;34.40;;;16.70;;
21254;SDS011;10785;50.674;17.954;2022-08-21T00:37:05;28.60;;;15.65;;
21254;SDS011;10785;50.674;17.954;2022-08-21T00:39:34;31.75;;;15.93;;
21254;SDS011;10785;50.674;17.954;2022-08-21T00:42:03;24.98;;;15.18;;
21254;SDS011;10785;50.674;17.954;2022-08-21T00:44:32;28.98;;;15.45;;
21254;SDS011;10785;50.674;17.954;2022-08-21T00:47:00;27.50;;;16.08;;
21254;SDS011;10785;50.674;17.954;2022-08-21T00:49:29;23.17;;;14.25;;
21254;SDS011;10785;50.674;17.954;2022-08-21T00:51:58;21.88;;;14.15;;
21254;SDS011;10785;50.674;17.954;2022-08-21T00:54:30;21.33;;;13.30;;
21254;SDS011;10785;50.674;17.954;2022-08-21T00:57:01;20.25;;;12.57;;
21254;SDS011;10785;50.674;17.954;2022-08-21T00:59:34;20.88;;;12.48;;
21254;SDS011;10785;50.674;17.954;2022-08-21T01:02:06;20.95;;;12.23;;
21254;SDS011;10785;50.674;17.954;2022-08-21T01:04:36;19.85;;;12.30;;
21254;SDS011;10785;50.674;17.954;2022-08-21T01:07:05;18.55;;;12.82;;
21254;SDS011;10785;50.674;17.954;2022-08-21T01:09:35;21.10;;;13.15;;
21254;SDS011;10785;50.674;17.954;2022-08-21T01:12:07;21.25;;;13.48;;
21254;SDS011;10785;50.674;17.954;2022-08-21T01:14:36;21.40;;;13.38;;
21254;SDS011;10785;50.674;17.954;2022-08-21T01:17:06;19.45;;;12.95;;
21254;SDS011;10785;50.674;17.954;2022-08-21T01:19:38;22.63;;;14.27;;
21254;SDS011;10785;50.674;17.954;2022-08-21T01:22:08;22.65;;;14.85;;
21254;SDS011;10785;50.674;17.954;2022-08-21T01:24:37;20.70;;;13.68;;
21254;SDS011;10785;50.674;17.954;2022-08-21T01:27:08;22.77;;;15.45;;
21254;SDS011;10785;50.674;17.954;2022-08-21T01:29:38;21.33;;;14.55;;
21254;SDS011;10785;50.674;17.954;2022-08-21T01:32:12;19.80;;;13.63;;
21254;SDS011;10785;50.674;17.954;2022-08-21T01:34:45;20.83;;;14.10;;
21254;SDS011;10785;50.674;17.954;2022-08-21T01:37:18;24.00;;;15.27;;
21254;SDS011;10785;50.674;17.954;2022-08-21T01:39:48;31.50;;;15.80;;
21254;SDS011;10785;50.674;17.954;2022-08-21T01:42:17;26.27;;;15.77;;
21254;SDS011;10785;50.674;17.954;2022-08-21T01:44:46;23.73;;;15.48;;
21254;SDS011;10785;50.674;17.954;2022-08-21T01:47:21;25.42;;;15.60;;
21254;SDS011;10785;50.674;17.954;2022-08-21T01:49:50;22.83;;;15.52;;
21254;SDS011;10785;50.674;17.954;2022-08-21T01:52:21;21.83;;;14.65;;
21254;SDS011;10785;50.674;17.954;2022-08-21T01:54:50;25.15;;;16.52;;
21254;SDS011;10785;50.674;17.954;2022-08-21T01:57:22;29.00;;;17.02;;
21254;SDS011;10785;50.674;17.954;2022-08-21T01:59:52;26.70;;;17.23;;
21254;SDS011;10785;50.674;17.954;2022-08-21T02:02:21;28.92;;;17.60;;
21254;SDS011;10785;50.674;17.954;2022-08-21T02:04:49;28.90;;;16.88;;
21254;SDS011;10785;50.674;17.954;2022-08-21T02:07:18;26.73;;;16.92;;
21254;SDS011;10785;50.674;17.954;2022-08-21T02:09:48;28.27;;;16.45;;
21254;SDS011;10785;50.674;17.954;2022-08-21T02:12:16;27.23;;;16.10;;
21254;SDS011;10785;50.674;17.954;2022-08-21T02:15:07;27.10;;;17.38;;
21254;SDS011;10785;50.674;17.954;2022-08-21T02:17:37;25.92;;;16.02;;
21254;SDS011;10785;50.674;17.954;2022-08-21T02:20:07;24.10;;;16.45;;
21254;SDS011;10785;50.674;17.954;2022-08-21T02:22:37;29.95;;;17.77;;
21254;SDS011;10785;50.674;17.954;2022-08-21T02:25:07;31.23;;;17.85;;
21254;SDS011;10785;50.674;17.954;2022-08-21T02:27:39;25.88;;;17.02;;
21254;SDS011;10785;50.674;17.954;2022-08-21T02:30:10;29.55;;;17.25;;
21254;SDS011;10785;50.674;17.954;2022-08-21T02:32:40;28.55;;;17.77;;
21254;SDS011;10785;50.674;17.954;2022-08-21T02:35:09;26.05;;;17.48;;
21254;SDS011;10785;50.674;17.954;2022-08-21T02:37:45;28.73;;;17.42;;
21254;SDS011;10785;50.674;17.954;2022-08-21T02:40:18;30.45;;;18.13;;
21254;SDS011;10785;50.674;17.954;2022-08-21T02:42:47;30.77;;;19.13;;
21254;SDS011;10785;50.674;17.954;2022-08-21T02:45:17;29.42;;;17.08;;
21254;SDS011;10785;50.674;17.954;2022-08-21T02:47:49;29.90;;;17.83;;
21254;SDS011;10785;50.674;17.954;2022-08-21T02:50:19;28.60;;;17.67;;
21254;SDS011;10785;50.674;17.954;2022-08-21T02:52:52;32.90;;;18.48;;
21254;SDS011;10785;50.674;17.954;2022-08-21T02:55:23;33.35;;;18.02;;
21254;SDS011;10785;50.674;17.954;2022-08-21T02:57:54;34.75;;;19.60;;
21254;SDS011;10785;50.674;17.954;2022-08-21T03:00:24;30.58;;;18.17;;
21254;SDS011;10785;50.674;17.954;2022-08-21T03:02:54;31.10;;;18.25;;
21254;SDS011;10785;50.674;17.954;2022-08-21T03:05:25;38.58;;;20.67;;
21254;SDS011;10785;50.674;17.954;2022-08-21T03:07:54;34.33;;;19.70;;
21254;SDS011;10785;50.674;17.954;2022-08-21T03:10:24;40.22;;;20.45;;
21254;SDS011;10785;50.674;17.954;2022-08-21T03:12:53;39.35;;;20.85;;
21254;SDS011;10785;50.674;17.954;2022-08-21T03:15:22;38.03;;;21.70;;
21254;SDS011;10785;50.674;17.954;2022-08-21T03:17:51;39.92;;;22.08;;
21254;SDS011;10785;50.674;17.954;2022-08-21T03:20:22;50.63;;;31.80;;
21254;SDS011;10785;50.674;17.954;2022-08-21T03:22:52;40.50;;;22.15;;
21254;SDS011;10785;50.674;17.954;2022-08-21T03:25:21;36.55;;;20.73;;
21254;SDS011;10785;50.674;17.954;2022-08-21T03:28:07;32.55;;;19.67;;
21254;SDS011;10785;50.674;17.954;2022-08-21T03:30:39;37.42;;;20.73;;
21254;SDS011;10785;50.674;17.954;2022-08-21T03:33:08;36.70;;;19.90;;
21254;SDS011;10785;50.674;17.954;2022-08-21T03:35:40;36.70;;;20.98;;
21254;SDS011;10785;50.674;17.954;2022-08-21T03:38:10;32.20;;;18.63;;
21254;SDS011;10785;50.674;17.954;2022-08-21T03:40:41;29.23;;;18.02;;
21254;SDS011;10785;50.674;17.954;2022-08-21T03:43:12;32.17;;;18.00;;
21254;SDS011;10785;50.674;17.954;2022-08-21T03:45:41;31.90;;;18.52;;
21254;SDS011;10785;50.674;17.954;2022-08-21T03:48:10;34.63;;;19.02;;
21254;SDS011;10785;50.674;17.954;2022-08-21T03:50:39;28.90;;;17.33;;
21254;SDS011;10785;50.674;17.954;2022-08-21T03:53:11;28.02;;;17.92;;
21254;SDS011;10785;50.674;17.954;2022-08-21T03:55:45;32.35;;;18.85;;
21254;SDS011;10785;50.674;17.954;2022-08-21T03:58:17;33.20;;;18.58;;
21254;SDS011;10785;50.674;17.954;2022-08-21T04:00:49;34.22;;;19.60;;
21254;SDS011;10785;50.674;17.954;2022-08-21T04:03:20;29.77;;;17.35;;
21254;SDS011;10785;50.674;17.954;2022-08-21T04:05:49;32.28;;;18.08;;
21254;SDS011;10785;50.674;17.954;2022-08-21T04:08:18;31.40;;;19.13;;
21254;SDS011;10785;50.674;17.954;2022-08-21T04:10:48;31.25;;;17.77;;
21254;SDS011;10785;50.674;17.954;2022-08-21T04:13:19;38.75;;;20.13;;
21254;SDS011;10785;50.674;17.954;2022-08-21T04:15:48;36.13;;;19.10;;
21254;SDS011;10785;50.674;17.954;2022-08-21T04:18:17;28.48;;;19.38;;
21254;SDS011;10785;50.674;17.954;2022-08-21T04:20:46;32.05;;;19.45;;
21254;SDS011;10785;50.674;17.954;2022-08-21T04:23:17;35.00;;;18.95;;
21254;SDS011;10785;50.674;17.954;2022-08-21T04:25:53;39.50;;;20.48;;
21254;SDS011;10785;50.674;17.954;2022-08-21T04:28:23;42.15;;;22.58;;
21254;SDS011;10785;50.674;17.954;2022-08-21T04:30:56;56.03;;;28.13;;
21254;SDS011;10785;50.674;17.954;2022-08-21T04:33:25;100.32;;;50.47;;
21254;SDS011;10785;50.674;17.954;2022-08-21T04:35:53;113.10;;;53.17;;
21254;SDS011;10785;50.674;17.954;2022-08-21T04:38:22;67.97;;;33.65;;
21254;SDS011;10785;50.674;17.954;2022-08-21T04:40:50;57.83;;;28.30;;
21254;SDS011;10785;50.674;17.954;2022-08-21T04:43:21;43.17;;;22.63;;
21254;SDS011;10785;50.674;17.954;2022-08-21T04:45:50;40.70;;;21.48;;
21254;SDS011;10785;50.674;17.954;2022-08-21T04:48:20;43.17;;;21.17;;
21254;SDS011;10785;50.674;17.954;2022-08-21T04:50:54;36.28;;;21.25;;
21254;SDS011;10785;50.674;17.954;2022-08-21T04:53:27;36.75;;;20.48;;
21254;SDS011;10785;50.674;17.954;2022-08-21T04:56:05;37.67;;;20.02;;
21254;SDS011;10785;50.674;17.954;2022-08-21T04:58:36;39.30;;;21.52;;
21254;SDS011;10785;50.674;17.954;2022-08-21T05:01:06;37.72;;;22.02;;
21254;SDS011;10785;50.674;17.954;2022-08-21T05:03:39;40.97;;;22.25;;
21254;SDS011;10785;50.674;17.954;2022-08-21T05:06:10;74.07;;;32.75;;
21254;SDS011;10785;50.674;17.954;2022-08-21T05:08:42;61.13;;;29.85;;
21254;SDS011;10785;50.674;17.954;2022-08-21T05:11:15;55.92;;;29.60;;
21254;SDS011;10785;50.674;17.954;2022-08-21T05:13:44;41.75;;;21.83;;
21254;SDS011;10785;50.674;17.954;2022-08-21T05:16:20;41.88;;;22.80;;
21254;SDS011;10785;50.674;17.954;2022-08-21T05:19:03;47.97;;;23.88;;
21254;SDS011;10785;50.674;17.954;2022-08-21T05:21:32;35.75;;;21.13;;
21254;SDS011;10785;50.674;17.954;2022-08-21T05:24:01;28.13;;;15.15;;
21254;SDS011;10785;50.674;17.954;2022-08-21T05:26:32;22.63;;;13.05;;
21254;SDS011;10785;50.674;17.954;2022-08-21T05:29:12;31.73;;;13.18;;
21254;SDS011;10785;50.674;17.954;2022-08-21T05:31:42;19.23;;;9.10;;
21254;SDS011;10785;50.674;17.954;2022-08-21T05:34:11;8.13;;;5.40;;
21254;SDS011;10785;50.674;17.954;2022-08-21T05:36:42;7.50;;;3.22;;
21254;SDS011;10785;50.674;17.954;2022-08-21T05:39:11;6.07;;;3.83;;
21254;SDS011;10785;50.674;17.954;2022-08-21T05:41:41;3.88;;;2.40;;
21254;SDS011;10785;50.674;17.954;2022-08-21T05:44:11;6.25;;;3.75;;
21254;SDS011;10785;50.674;17.954;2022-08-21T05:46:40;6.45;;;3.70;;
21254;SDS011;10785;50.674;17.954;2022-08-21T05:49:08;5.55;;;3.45;;
21254;SDS011;10785;50.674;17.954;2022-08-21T05:51:37;4.93;;;3.58;;
21254;SDS011;10785;50.674;17.954;2022-08-21T05:54:07;9.90;;;3.13;;
21254;SDS011;10785;50.674;17.954;2022-08-21T05:56:36;6.07;;;2.10;;
21254;SDS011;10785;50.674;17.954;2022-08-21T05:59:06;7.85;;;2.20;;
21254;SDS011;10785;50.674;17.954;2022-08-21T06:01:35;5.07;;;1.70;;
21254;SDS011;10785;50.674;17.954;2022-08-21T06:04:05;2.70;;;1.60;;
21254;SDS011;10785;50.674;17.954;2022-08-21T06:06:34;2.80;;;1.85;;
21254;SDS011;10785;50.674;17.954;2022-08-21T06:09:04;14.48;;;10.30;;
21254;SDS011;10785;50.674;17.954;2022-08-21T06:11:33;10.75;;;7.20;;
21254;SDS011;10785;50.674;17.954;2022-08-21T06:14:02;6.35;;;4.50;;
21254;SDS011;10785;50.674;17.954;2022-08-21T06:16:34;9.15;;;3.58;;
21254;SDS011;10785;50.674;17.954;2022-08-21T06:19:03;4.85;;;3.15;;
21254;SDS011;10785;50.674;17.954;2022-08-21T06:21:31;7.10;;;3.25;;
21254;SDS011;10785;50.674;17.954;2022-08-21T06:24:00;2.08;;;1.88;;
21254;SDS011;10785;50.674;17.954;2022-08-21T06:26:30;4.38;;;2.33;;
21254;SDS011;10785;50.674;17.954;2022-08-21T06:28:59;3.75;;;2.15;;
21254;SDS011;10785;50.674;17.954;2022-08-21T06:31:28;3.60;;;1.80;;
21254;SDS011;10785;50.674;17.954;2022-08-21T06:34:00;2.25;;;1.33;;
21254;SDS011;10785;50.674;17.954;2022-08-21T06:36:28;3.40;;;1.50;;
21254;SDS011;10785;50.674;17.954;2022-08-21T06:38:57;1.90;;;1.50;;
21254;SDS011;10785;50.674;17.954;2022-08-21T06:41:27;5.35;;;1.73;;
21254;SDS011;10785;50.674;17.954;2022-08-21T06:44:04;4.20;;;1.80;;
21254;SDS011;10785;50.674;17.954;2022-08-21T06:46:33;2.72;;;1.58;;
21254;SDS011;10785;50.674;17.954;2022-08-21T06:49:03;2.28;;;1.58;;
21254;SDS011;10785;50.674;17.954;2022-08-21T06:51:33;2.67;;;1.80;;
21254;SDS011;10785;50.674;17.954;2022-08-21T06:54:05;1.80;;;1.60;;
21254;SDS011;10785;50.674;17.954;2022-08-21T06:56:34;4.30;;;2.50;;
21254;SDS011;10785;50.674;17.954;2022-08-21T06:59:05;3.25;;;1.83;;
21254;SDS011;10785;50.674;17.954;2022-08-21T07:01:34;2.97;;;1.80;;
21254;SDS011;10785;50.674;17.954;2022-08-21T07:04:05;2.10;;;1.70;;
21254;SDS011;10785;50.674;17.954;2022-08-21T07:06:36;3.33;;;2.05;;
21254;SDS011;10785;50.674;17.954;2022-08-21T07:09:05;3.08;;;2.08;;
21254;SDS011;10785;50.674;17.954;2022-08-21T07:11:34;3.15;;;2.17;;
21254;SDS011;10785;50.674;17.954;2022-08-21T07:14:15;4.32;;;2.20;;
21254;SDS011;10785;50.674;17.954;2022-08-21T07:16:46;4.00;;;2.40;;
21254;SDS011;10785;50.674;17.954;2022-08-21T07:19:17;3.60;;;2.65;;
21254;SDS011;10785;50.674;17.954;2022-08-21T07:21:46;3.00;;;2.15;;
21254;SDS011;10785;50.674;17.954;2022-08-21T07:24:15;6.80;;;4.20;;
21254;SDS011;10785;50.674;17.954;2022-08-21T07:26:44;5.63;;;4.18;;
21254;SDS011;10785;50.674;17.954;2022-08-21T07:29:15;6.03;;;3.95;;
21254;SDS011;10785;50.674;17.954;2022-08-21T07:31:45;10.30;;;3.67;;
21254;SDS011;10785;50.674;17.954;2022-08-21T07:34:17;4.70;;;3.65;;
21254;SDS011;10785;50.674;17.954;2022-08-21T07:36:46;6.28;;;4.03;;
21254;SDS011;10785;50.674;17.954;2022-08-21T07:39:15;45.47;;;27.75;;
21254;SDS011;10785;50.674;17.954;2022-08-21T07:41:44;22.58;;;14.25;;
21254;SDS011;10785;50.674;17.954;2022-08-21T07:44:13;19.13;;;11.73;;
21254;SDS011;10785;50.674;17.954;2022-08-21T07:46:41;22.77;;;11.93;;
21254;SDS011;10785;50.674;17.954;2022-08-21T07:49:10;14.77;;;8.88;;
21254;SDS011;10785;50.674;17.954;2022-08-21T07:51:40;5.43;;;4.28;;
21254;SDS011;10785;50.674;17.954;2022-08-21T07:54:09;2.83;;;2.53;;
21254;SDS011;10785;50.674;17.954;2022-08-21T07:56:43;3.47;;;2.30;;
21254;SDS011;10785;50.674;17.954;2022-08-21T07:59:12;3.45;;;2.40;;
21254;SDS011;10785;50.674;17.954;2022-08-21T08:01:41;3.35;;;2.80;;
21254;SDS011;10785;50.674;17.954;2022-08-21T08:04:09;5.20;;;2.50;;
21254;SDS011;10785;50.674;17.954;2022-08-21T08:06:38;4.07;;;3.65;;
21254;SDS011;10785;50.674;17.954;2022-08-21T08:09:08;3.05;;;2.60;;
21254;SDS011;10785;50.674;17.954;2022-08-21T08:11:38;3.55;;;3.00;;
21254;SDS011;10785;50.674;17.954;2022-08-21T08:14:10;3.78;;;2.78;;
21254;SDS011;10785;50.674;17.954;2022-08-21T08:16:39;2.67;;;2.40;;
21254;SDS011;10785;50.674;17.954;2022-08-21T08:19:07;3.58;;;2.53;;
21254;SDS011;10785;50.674;17.954;2022-08-21T08:21:38;2.90;;;2.45;;
21254;SDS011;10785;50.674;17.954;2022-08-21T08:24:08;3.40;;;2.75;;
21254;SDS011;10785;50.674;17.954;2022-08-21T08:26:45;3.40;;;2.47;;
21254;SDS011;10785;50.674;17.954;2022-08-21T08:29:20;2.45;;;2.25;;
21254;SDS011;10785;50.674;17.954;2022-08-21T08:31:48;4.25;;;2.80;;
21254;SDS011;10785;50.674;17.954;2022-08-21T08:34:20;2.33;;;1.80;;
21254;SDS011;10785;50.674;17.954;2022-08-21T08:36:51;7.30;;;4.43;;
21254;SDS011;10785;50.674;17.954;2022-08-21T08:39:21;2.88;;;2.00;;
21254;SDS011;10785;50.674;17.954;2022-08-21T08:41:56;2.03;;;1.80;;
21254;SDS011;10785;50.674;17.954;2022-08-21T08:44:49;2.70;;;2.42;;
21254;SDS011;10785;50.674;17.954;2022-08-21T08:47:25;2.35;;;1.85;;
21254;SDS011;10785;50.674;17.954;2022-08-21T08:49:58;3.05;;;2.22;;
21254;SDS011;10785;50.674;17.954;2022-08-21T08:52:31;3.17;;;2.30;;
21254;SDS011;10785;50.674;17.954;2022-08-21T08:55:03;2.63;;;2.30;;
21254;SDS011;10785;50.674;17.954;2022-08-21T08:57:33;2.85;;;2.53;;
21254;SDS011;10785;50.674;17.954;2022-08-21T09:00:04;4.55;;;3.10;;
21254;SDS011;10785;50.674;17.954;2022-08-21T09:02:37;4.63;;;3.10;;
21254;SDS011;10785;50.674;17.954;2022-08-21T09:05:07;5.97;;;2.90;;
21254;SDS011;10785;50.674;17.954;2022-08-21T09:07:42;3.90;;;2.38;;
21254;SDS011;10785;50.674;17.954;2022-08-21T09:10:19;2.55;;;1.90;;
21254;SDS011;10785;50.674;17.954;2022-08-21T09:12:55;3.17;;;2.53;;
21254;SDS011;10785;50.674;17.954;2022-08-21T09:15:32;4.15;;;2.40;;
21254;SDS011;10785;50.674;17.954;2022-08-21T09:18:08;2.00;;;1.80;;
21254;SDS011;10785;50.674;17.954;2022-08-21T09:20:48;2.80;;;2.58;;
21254;SDS011;10785;50.674;17.954;2022-08-21T09:23:28;2.40;;;2.13;;
21254;SDS011;10785;50.674;17.954;2022-08-21T09:26:07;4.80;;;3.85;;
21254;SDS011;10785;50.674;17.954;2022-08-21T09:28:40;6.88;;;5.00;;
21254;SDS011;10785;50.674;17.954;2022-08-21T09:31:11;8.40;;;6.65;;
21254;SDS011;10785;50.674;17.954;2022-08-21T09:33:59;13.52;;;8.65;;
21254;SDS011;10785;50.674;17.954;2022-08-21T09:36:31;13.18;;;9.40;;
21254;SDS011;10785;50.674;17.954;2022-08-21T09:39:04;11.90;;;9.95;;
21254;SDS011;10785;50.674;17.954;2022-08-21T09:41:36;44.08;;;32.05;;
21254;SDS011;10785;50.674;17.954;2022-08-21T09:44:06;57.97;;;39.70;;
21254;SDS011;10785;50.674;17.954;2022-08-21T09:46:36;22.48;;;17.42;;
21254;SDS011;10785;50.674;17.954;2022-08-21T09:49:04;17.48;;;14.07;;
21254;SDS011;10785;50.674;17.954;2022-08-21T09:51:48;16.17;;;13.18;;
21254;SDS011;10785;50.674;17.954;2022-08-21T09:54:19;18.52;;;13.07;;
21254;SDS011;10785;50.674;17.954;2022-08-21T09:56:54;17.17;;;13.25;;
21254;SDS011;10785;50.674;17.954;2022-08-21T09:59:42;16.83;;;14.23;;
21254;SDS011;10785;50.674;17.954;2022-08-21T10:02:21;16.63;;;13.10;;
21254;SDS011;10785;50.674;17.954;2022-08-21T10:04:58;14.52;;;13.05;;
21254;SDS011;10785;50.674;17.954;2022-08-21T10:07:30;19.60;;;13.40;;
21254;SDS011;10785;50.674;17.954;2022-08-21T10:10:00;16.10;;;13.90;;
21254;SDS011;10785;50.674;17.954;2022-08-21T10:12:35;16.00;;;12.77;;
21254;SDS011;10785;50.674;17.954;2022-08-21T10:15:15;14.18;;;11.65;;
21254;SDS011;10785;50.674;17.954;2022-08-21T10:17:51;16.73;;;11.93;;
21254;SDS011;10785;50.674;17.954;2022-08-21T10:20:29;13.60;;;10.70;;
21254;SDS011;10785;50.674;17.954;2022-08-21T10:23:13;15.10;;;11.45;;
21254;SDS011;10785;50.674;17.954;2022-08-21T10:25:57;12.10;;;10.40;;
21254;SDS011;10785;50.674;17.954;2022-08-21T10:28:44;11.77;;;10.25;;
21254;SDS011;10785;50.674;17.954;2022-08-21T10:31:21;12.07;;;9.85;;
21254;SDS011;10785;50.674;17.954;2022-08-21T10:34:01;12.20;;;9.40;;
21254;SDS011;10785;50.674;17.954;2022-08-21T10:36:41;10.93;;;9.30;;
21254;SDS011;10785;50.674;17.954;2022-08-21T10:39:16;9.57;;;8.57;;
21254;SDS011;10785;50.674;17.954;2022-08-21T10:42:08;9.13;;;8.23;;
21254;SDS011;10785;50.674;17.954;2022-08-21T10:45:02;8.32;;;7.13;;
21254;SDS011;10785;50.674;17.954;2022-08-21T10:47:41;7.57;;;6.88;;
21254;SDS011;10785;50.674;17.954;2022-08-21T10:50:17;8.98;;;7.05;;
21254;SDS011;10785;50.674;17.954;2022-08-21T10:53:05;8.02;;;6.63;;
21254;SDS011;10785;50.674;17.954;2022-08-21T10:55:57;7.70;;;6.47;;
21254;SDS011;10785;50.674;17.954;2022-08-21T10:58:30;7.43;;;6.68;;
21254;SDS011;10785;50.674;17.954;2022-08-21T11:01:07;7.10;;;5.97;;
21254;SDS011;10785;50.674;17.954;2022-08-21T11:03:41;6.50;;;5.90;;
21254;SDS011;10785;50.674;17.954;2022-08-21T11:06:13;6.50;;;5.10;;
21254;SDS011;10785;50.674;17.954;2022-08-21T11:08:45;5.05;;;4.55;;
21254;SDS011;10785;50.674;17.954;2022-08-21T11:11:19;6.35;;;5.15;;
21254;SDS011;10785;50.674;17.954;2022-08-21T11:13:59;6.88;;;5.40;;
21254;SDS011;10785;50.674;17.954;2022-08-21T11:16:33;6.13;;;5.05;;
21254;SDS011;10785;50.674;17.954;2022-08-21T11:19:09;5.47;;;4.97;;
21254;SDS011;10785;50.674;17.954;2022-08-21T11:21:45;5.85;;;4.90;;
21254;SDS011;10785;50.674;17.954;2022-08-21T11:24:19;5.53;;;4.50;;
21254;SDS011;10785;50.674;17.954;2022-08-21T11:26:58;5.00;;;4.50;;
21254;SDS011;10785;50.674;17.954;2022-08-21T11:29:31;5.68;;;4.80;;
21254;SDS011;10785;50.674;17.954;2022-08-21T11:32:10;5.43;;;4.93;;
21254;SDS011;10785;50.674;17.954;2022-08-21T11:34:58;4.82;;;4.40;;
21254;SDS011;10785;50.674;17.954;2022-08-21T11:37:40;6.32;;;5.70;;
21254;SDS011;10785;50.674;17.954;2022-08-21T11:40:22;6.10;;;5.55;;
21254;SDS011;10785;50.674;17.954;2022-08-21T11:43:01;7.15;;;5.75;;
21254;SDS011;10785;50.674;17.954;2022-08-21T11:45:36;7.70;;;5.68;;
21254;SDS011;10785;50.674;17.954;2022-08-21T11:48:14;5.97;;;5.38;;
21254;SDS011;10785;50.674;17.954;2022-08-21T11:50:52;7.97;;;6.68;;
21254;SDS011;10785;50.674;17.954;2022-08-21T11:53:24;7.13;;;6.38;;
21254;SDS011;10785;50.674;17.954;2022-08-21T11:56:01;7.75;;;6.75;;
21254;SDS011;10785;50.674;17.954;2022-08-21T11:58:36;7.65;;;5.95;;
21254;SDS011;10785;50.674;17.954;2022-08-21T12:01:10;8.05;;;6.07;;
21254;SDS011;10785;50.674;17.954;2022-08-21T12:03:50;6.95;;;6.25;;
21254;SDS011;10785;50.674;17.954;2022-08-21T12:06:30;8.00;;;6.35;;
21254;SDS011;10785;50.674;17.954;2022-08-21T12:09:02;6.97;;;6.32;;
21254;SDS011;10785;50.674;17.954;2022-08-21T12:11:43;10.45;;;9.38;;
21254;SDS011;10785;50.674;17.954;2022-08-21T12:14:16;9.82;;;8.23;;
21254;SDS011;10785;50.674;17.954;2022-08-21T12:16:47;8.00;;;6.90;;
21254;SDS011;10785;50.674;17.954;2022-08-21T12:19:29;9.18;;;6.35;;
21254;SDS011;10785;50.674;17.954;2022-08-21T12:22:07;9.00;;;8.10;;
21254;SDS011;10785;50.674;17.954;2022-08-21T12:24:37;14.15;;;12.75;;
21254;SDS011;10785;50.674;17.954;2022-08-21T12:27:21;18.90;;;16.90;;
21254;SDS011;10785;50.674;17.954;2022-08-21T12:29:59;10.20;;;9.10;;
21254;SDS011;10785;50.674;17.954;2022-08-21T12:32:30;8.20;;;7.05;;
21254;SDS011;10785;50.674;17.954;2022-08-21T12:35:14;8.15;;;7.03;;
21254;SDS011;10785;50.674;17.954;2022-08-21T12:37:51;10.02;;;7.13;;
21254;SDS011;10785;50.674;17.954;2022-08-21T12:40:25;8.25;;;6.93;;
21254;SDS011;10785;50.674;17.954;2022-08-21T12:42:58;24.65;;;16.95;;
21254;SDS011;10785;50.674;17.954;2022-08-21T12:45:31;17.52;;;15.63;;
21254;SDS011;10785;50.674;17.954;2022-08-21T12:48:03;12.48;;;9.98;;
21254;SDS011;10785;50.674;17.954;2022-08-21T12:50:40;10.93;;;7.55;;
21254;SDS011;10785;50.674;17.954;2022-08-21T12:53:15;12.90;;;8.63;;
21254;SDS011;10785;50.674;17.954;2022-08-21T12:55:53;14.88;;;8.55;;
21254;SDS011;10785;50.674;17.954;2022-08-21T12:58:26;10.80;;;8.45;;
21254;SDS011;10785;50.674;17.954;2022-08-21T13:00:56;10.45;;;7.80;;
21254;SDS011;10785;50.674;17.954;2022-08-21T13:03:31;12.65;;;8.88;;
21254;SDS011;10785;50.674;17.954;2022-08-21T13:06:06;9.43;;;8.18;;
21254;SDS011;10785;50.674;17.954;2022-08-21T13:08:41;11.82;;;8.07;;
21254;SDS011;10785;50.674;17.954;2022-08-21T13:11:14;10.38;;;7.70;;
21254;SDS011;10785;50.674;17.954;2022-08-21T13:14:00;13.88;;;9.05;;
21254;SDS011;10785;50.674;17.954;2022-08-21T13:16:31;11.73;;;7.88;;
21254;SDS011;10785;50.674;17.954;2022-08-21T13:19:03;11.27;;;8.05;;
21254;SDS011;10785;50.674;17.954;2022-08-21T13:21:38;12.73;;;8.25;;
21254;SDS011;10785;50.674;17.954;2022-08-21T13:24:11;11.73;;;8.00;;
21254;SDS011;10785;50.674;17.954;2022-08-21T13:27:14;11.35;;;8.93;;
21254;SDS011;10785;50.674;17.954;2022-08-21T13:29:49;13.43;;;9.13;;
21254;SDS011;10785;50.674;17.954;2022-08-21T13:32:30;12.00;;;8.68;;
21254;SDS011;10785;50.674;17.954;2022-08-21T13:35:07;16.10;;;9.68;;
21254;SDS011;10785;50.674;17.954;2022-08-21T13:37:42;13.60;;;9.05;;
21254;SDS011;10785;50.674;17.954;2022-08-21T13:40:14;13.05;;;9.48;;
21254;SDS011;10785;50.674;17.954;2022-08-21T13:42:47;11.38;;;8.73;;
21254;SDS011;10785;50.674;17.954;2022-08-21T13:45:20;12.90;;;8.60;;
21254;SDS011;10785;50.674;17.954;2022-08-21T13:47:51;10.30;;;8.35;;
21254;SDS011;10785;50.674;17.954;2022-08-21T13:50:22;11.27;;;7.82;;
21254;SDS011;10785;50.674;17.954;2022-08-21T13:52:57;13.63;;;8.65;;
21254;SDS011;10785;50.674;17.954;2022-08-21T13:55:35;12.77;;;8.93;;
21254;SDS011;10785;50.674;17.954;2022-08-21T13:58:08;13.52;;;8.38;;
21254;SDS011;10785;50.674;17.954;2022-08-21T14:00:43;12.32;;;9.68;;
21254;SDS011;10785;50.674;17.954;2022-08-21T14:03:15;15.38;;;9.30;;
21254;SDS011;10785;50.674;17.954;2022-08-21T14:05:56;12.50;;;8.77;;
21254;SDS011;10785;50.674;17.954;2022-08-21T14:08:29;17.90;;;9.30;;
21254;SDS011;10785;50.674;17.954;2022-08-21T14:11:00;11.85;;;8.50;;
21254;SDS011;10785;50.674;17.954;2022-08-21T14:13:37;16.52;;;8.90;;
21254;SDS011;10785;50.674;17.954;2022-08-21T14:16:12;15.25;;;8.30;;
21254;SDS011;10785;50.674;17.954;2022-08-21T14:18:44;12.63;;;8.57;;
21254;SDS011;10785;50.674;17.954;2022-08-21T14:21:27;17.70;;;10.50;;
21254;SDS011;10785;50.674;17.954;2022-08-21T14:24:04;17.55;;;11.90;;
21254;SDS011;10785;50.674;17.954;2022-08-21T14:26:37;12.40;;;8.80;;
21254;SDS011;10785;50.674;17.954;2022-08-21T14:29:12;14.65;;;8.50;;
21254;SDS011;10785;50.674;17.954;2022-08-21T14:31:43;16.30;;;9.18;;
21254;SDS011;10785;50.674;17.954;2022-08-21T14:34:18;10.02;;;8.32;;
21254;SDS011;10785;50.674;17.954;2022-08-21T14:36:47;18.60;;;9.73;;
21254;SDS011;10785;50.674;17.954;2022-08-21T14:39:18;10.75;;;8.50;;
21254;SDS011;10785;50.674;17.954;2022-08-21T14:41:46;16.55;;;11.88;;
21254;SDS011;10785;50.674;17.954;2022-08-21T14:44:16;25.25;;;18.40;;
21254;SDS011;10785;50.674;17.954;2022-08-21T14:46:46;20.08;;;13.85;;
21254;SDS011;10785;50.674;17.954;2022-08-21T14:49:23;18.17;;;11.35;;
21254;SDS011;10785;50.674;17.954;2022-08-21T14:51:54;17.90;;;10.43;;
21254;SDS011;10785;50.674;17.954;2022-08-21T14:54:26;16.02;;;8.75;;